Time;durP1;ratioP1;P1;durP2;ratioP2;P2;SDS_P1;SDS_P2;PMS_P1;PMS_P2;Temp;Humidity;BMP_temperature;BMP_pressure;BME280_temperature;BME280_humidity;BME280_pressure;Samples;Min_cycle;Max_cycle;Signal;HPM_P1;HPM_P2
2021/12/05 00:24:35;;;;;;;6.28;2.30;;;;;;;20.02;37.79;99747.38;7315760;19;129635;-61
2021/12/05 00:27:14;;;;;;;5.25;2.15;;;;;;;20.00;38.03;99744.88;7313189;19;131104;-62
2021/12/05 00:33:09;;;;;;;6.75;2.00;;;;;;;19.97;37.51;99740.69;7316153;19;129112;-62
2021/12/05 00:41:15;;;;;;;4.78;2.05;;;;;;;19.90;37.95;99740.19;7312577;19;131405;-62
2021/12/05 00:44:05;;;;;;;5.72;1.98;;;;;;;19.89;37.89;99737.69;7312258;19;128911;-62
2021/12/05 00:49:31;;;;;;;5.07;1.98;;;;;;;19.86;37.78;99732.72;7307962;19;131046;-62
2021/12/05 00:52:38;;;;;;;7.22;2.30;;;;;;;19.83;37.61;99729.41;7313349;19;131468;-62
2021/12/05 01:16:00;;;;;;;3.45;1.90;;;;;;;19.69;38.00;99739.44;7310159;19;131424;-62
2021/12/05 01:18:27;;;;;;;3.65;1.80;;;;;;;19.67;37.98;99731.41;7312007;19;129055;-62
2021/12/05 01:21:01;;;;;;;4.07;1.50;;;;;;;19.68;37.86;99735.84;7313746;19;131275;-62
2021/12/05 01:26:18;;;;;;;2.65;1.48;;;;;;;19.64;38.04;99743.06;7313207;19;128842;-62
2021/12/05 01:29:04;;;;;;;4.28;1.55;;;;;;;19.63;37.66;99735.84;7308060;19;129162;-62
2021/12/05 01:31:51;;;;;;;4.55;1.98;;;;;;;19.63;37.88;99735.84;7311569;19;131180;-62
2021/12/05 01:37:09;;;;;;;4.28;1.40;;;;;;;19.60;37.63;99741.94;7310965;19;129001;-61
2021/12/05 01:43:04;;;;;;;5.10;1.55;;;;;;;19.57;37.58;99734.19;7312589;19;131071;-63
2021/12/05 02:41:53;;;;;;;3.47;1.58;;;;;;;19.30;37.32;99710.41;7310868;19;129009;-62
2021/12/05 02:44:24;;;;;;;2.65;1.30;;;;;;;19.30;37.38;99709.56;7308494;19;130562;-62
2021/12/05 02:47:02;;;;;;;3.05;1.38;;;;;;;19.29;37.35;99696.81;7311262;19;131101;-62
2021/12/05 02:49:31;;;;;;;4.90;1.65;;;;;;;19.27;37.41;99699.03;7309777;19;131899;-63
2021/12/05 02:52:03;;;;;;;5.25;1.45;;;;;;;19.26;37.13;99695.44;7308520;19;130905;-62
2021/12/05 02:54:37;;;;;;;3.60;1.35;;;;;;;19.25;37.30;99696.56;7311881;19;128939;-61
2021/12/05 02:57:06;;;;;;;3.60;1.08;;;;;;;19.24;37.03;99686.56;7305085;19;131914;-62
2021/12/05 03:02:18;;;;;;;3.25;1.40;;;;;;;19.25;36.95;99690.19;7307040;19;128927;-63
2021/12/05 03:04:49;;;;;;;4.28;1.50;;;;;;;19.24;37.29;99694.06;7306975;19;130778;-61
2021/12/05 03:07:20;;;;;;;5.00;1.52;;;;;;;19.22;37.03;99697.09;7310888;19;131135;-62
2021/12/05 03:09:46;;;;;;;3.58;1.10;;;;;;;19.21;37.46;99695.44;7305983;19;132011;-61
2021/12/05 03:12:18;;;;;;;2.60;1.02;;;;;;;19.20;37.39;99699.31;7311205;19;129232;-62
2021/12/05 03:14:50;;;;;;;4.13;1.45;;;;;;;19.21;37.41;99698.22;7307422;19;129051;-61
2021/12/05 03:17:17;;;;;;;4.78;1.48;;;;;;;19.20;37.16;99693.78;7310098;19;131898;-61
2021/12/05 03:19:43;;;;;;;3.78;1.25;;;;;;;19.19;37.25;99694.88;7306383;19;132134;-61
2021/12/05 03:22:10;;;;;;;4.97;1.30;;;;;;;19.18;37.11;99690.44;7309795;19;128841;-61
2021/12/05 03:24:37;;;;;;;3.22;1.40;;;;;;;19.18;37.21;99690.44;7307617;19;129212;-63
2021/12/05 03:27:04;;;;;;;5.53;1.73;;;;;;;19.16;37.11;99692.66;7307937;19;131497;-61
2021/12/05 03:29:31;;;;;;;4.18;1.58;;;;;;;19.15;37.28;99693.78;7310050;19;131033;-62
2021/12/05 03:31:58;;;;;;;2.20;1.00;;;;;;;19.14;37.14;99692.09;7305314;19;129024;-62
2021/12/05 03:34:25;;;;;;;2.67;1.20;;;;;;;19.15;36.94;99696.53;7310655;19;129083;-62
2021/12/05 03:36:54;;;;;;;4.10;1.35;;;;;;;19.14;36.81;99694.88;7305065;19;131992;-61
2021/12/05 03:39:21;;;;;;;2.75;1.25;;;;;;;19.13;37.12;99691.28;7310984;19;131605;-61
2021/12/05 03:41:50;;;;;;;1.90;1.17;;;;;;;19.12;36.97;99686.00;7305230;19;129058;-61
2021/12/05 03:44:19;;;;;;;2.15;1.13;;;;;;;19.11;36.81;99684.34;7309623;19;129289;-61
2021/12/05 03:46:48;;;;;;;2.63;1.10;;;;;;;19.09;36.91;99687.41;7305392;19;131119;-61
2021/12/05 03:49:15;;;;;;;2.67;1.20;;;;;;;19.08;37.10;99686.56;7308831;19;131705;-63
2021/12/05 03:51:47;;;;;;;3.13;1.20;;;;;;;19.09;36.95;99687.41;7314010;19;128875;-62
2021/12/05 03:54:14;;;;;;;4.13;1.60;;;;;;;19.08;36.60;99696.84;7313724;19;128776;-61
2021/12/05 03:56:41;;;;;;;2.38;1.15;;;;;;;19.07;37.03;99684.94;7316541;19;132177;-61
2021/12/05 03:59:10;;;;;;;1.80;1.00;;;;;;;19.06;37.17;99686.03;7311612;19;131172;-61
2021/12/05 04:01:38;;;;;;;4.35;1.42;;;;;;;19.04;36.93;99691.03;7316485;19;128960;-61
2021/12/05 04:04:06;;;;;;;2.03;1.10;;;;;;;19.04;36.71;99692.94;7312249;19;128977;-61
2021/12/05 04:06:34;;;;;;;2.03;1.00;;;;;;;19.03;36.97;99689.34;7315860;19;132002;-62
2021/12/05 04:09:04;;;;;;;2.33;1.10;;;;;;;19.03;36.97;99689.34;7312908;19;131433;-61
2021/12/05 04:11:37;;;;;;;3.05;1.30;;;;;;;19.02;36.63;99693.25;7313930;19;128906;-62
2021/12/05 04:14:08;;;;;;;1.98;1.08;;;;;;;19.02;36.62;99692.38;7314377;19;130074;-62
2021/12/05 04:16:37;;;;;;;2.13;1.02;;;;;;;19.01;36.69;99691.56;7312503;19;131936;-59
2021/12/05 04:19:05;;;;;;;4.25;1.20;;;;;;;19.01;36.57;99691.56;7316253;19;130994;-63
2021/12/05 04:21:35;;;;;;;2.80;1.20;;;;;;;18.99;36.89;99696.56;7311787;19;129302;-61
2021/12/05 04:24:05;;;;;;;2.90;1.25;;;;;;;18.99;36.58;99691.00;7315005;19;128854;-64
2021/12/05 04:26:33;;;;;;;2.17;1.13;;;;;;;18.99;36.73;99691.00;7314190;19;133017;-62
2021/12/05 04:29:01;;;;;;;3.15;1.25;;;;;;;18.98;36.65;99692.13;7314711;19;132360;-62
2021/12/05 04:31:28;;;;;;;2.30;1.10;;;;;;;18.97;36.51;99690.47;7313776;19;129044;-61
2021/12/05 04:33:54;;;;;;;2.28;1.00;;;;;;;18.96;36.91;99685.22;7312450;19;129501;-61
2021/12/05 04:36:22;;;;;;;2.70;1.10;;;;;;;18.96;36.50;99690.75;7314940;19;131530;-61
2021/12/05 04:38:49;;;;;;;2.60;1.08;;;;;;;18.95;36.64;99687.16;7312257;19;131012;-61
2021/12/05 04:41:15;;;;;;;3.10;1.35;;;;;;;18.94;36.86;99691.03;7315739;19;128973;-62
2021/12/05 04:43:43;;;;;;;3.65;1.20;;;;;;;18.92;36.64;99685.75;7310895;19;129532;-61
2021/12/05 04:46:23;;;;;;;4.90;1.13;;;;;;;18.94;36.26;99691.03;7313834;19;131874;-61
2021/12/05 04:48:51;;;;;;;4.35;1.50;;;;;;;;;;7312027;19;131711;-61
2021/12/05 04:51:25;;;;;;;3.17;1.40;;;;;;;18.92;36.52;99687.72;7312277;19;128980;-60
2021/12/05 04:53:52;;;;;;;4.35;1.60;;;;;;;18.90;36.42;99690.75;7315212;19;132040;-62
2021/12/05 04:56:19;;;;;;;2.83;1.17;;;;;;;18.90;36.34;99684.38;7312482;19;131036;-61
2021/12/05 04:58:46;;;;;;;2.13;1.30;;;;;;;18.88;36.45;99686.59;7316020;19;131014;-61
2021/12/05 05:01:13;;;;;;;3.50;1.02;;;;;;;18.88;36.55;99686.59;7309107;19;131248;-61
2021/12/05 05:03:40;;;;;;;2.55;1.20;;;;;;;18.88;36.48;99681.06;7315311;19;129564;-61
2021/12/05 05:06:18;;;;;;;2.53;1.35;;;;;;;18.86;36.44;99688.81;7309905;19;132265;-61
2021/12/05 05:08:52;;;;;;;1.98;0.93;;;;;;;18.85;36.57;99692.69;7314763;19;131209;-61
2021/12/05 05:11:21;;;;;;;3.45;1.05;;;;;;;18.86;36.24;99694.34;7311248;19;130876;-62
2021/12/05 05:13:49;;;;;;;2.80;1.30;;;;;;;18.85;36.60;99687.16;7312539;19;129042;-61
2021/12/05 05:16:19;;;;;;;2.95;1.27;;;;;;;18.84;36.18;99691.03;7313742;19;131318;-62
2021/12/05 05:18:59;;;;;;;1.92;1.20;;;;;;;18.84;36.21;99697.41;7310036;19;131148;-61
2021/12/05 05:24:52;;;;;;;1.75;1.00;;;;;;;18.83;36.13;99694.94;7310981;19;129080;-61
2021/12/05 05:39:18;;;;;;;2.40;1.13;;;;;;;18.77;36.19;99694.91;7311849;19;128967;-61
2021/12/05 05:47:16;;;;;;;2.03;1.20;;;;;;;18.73;36.30;99715.97;7310332;19;129031;-61
2021/12/05 05:52:14;;;;;;;2.70;1.10;;;;;;;18.75;36.42;99713.75;7308220;19;132006;-62
2021/12/05 05:54:44;;;;;;;2.15;0.98;;;;;;;18.76;36.85;99714.59;7300436;19;131105;-61
2021/12/05 05:57:23;;;;;;;6.03;1.30;;;;;;;18.80;36.48;99717.66;7308608;19;130944;-62
2021/12/05 06:00:03;;;;;;;2.53;1.10;;;;;;;18.91;36.21;99716.53;7307267;19;132119;-62
2021/12/05 06:05:16;;;;;;;2.70;1.35;;;;;;;19.29;36.13;99725.41;7308333;19;129398;-62
2021/12/05 06:07:45;;;;;;;4.63;1.10;;;;;;;19.52;35.98;99725.88;7310070;19;133495;-62
2021/12/05 06:10:16;;;;;;;1.88;1.05;;;;;;;19.79;35.71;99727.47;7312855;19;132191;-62
2021/12/05 06:12:43;;;;;;;4.25;0.65;;;;;;;20.05;35.30;99732.94;7307986;19;131896;-61
2021/12/05 06:15:13;;;;;;;3.83;1.30;;;;;;;20.29;35.17;99725.59;7312463;19;130296;-61
2021/12/05 06:17:41;;;;;;;1.30;0.80;;;;;;;20.53;34.78;99732.38;7309221;19;130930;-61
2021/12/05 06:20:11;;;;;;;2.33;1.10;;;;;;;20.73;34.48;99735.03;7310498;19;131026;-62
2021/12/05 06:22:38;;;;;;;2.13;0.90;;;;;;;20.93;34.41;99733.22;7308625;19;132547;-62
2021/12/05 06:25:10;;;;;;;3.90;1.20;;;;;;;21.12;33.90;99733.31;7310128;19;137286;-63
2021/12/05 06:27:37;;;;;;;1.90;0.85;;;;;;;21.29;33.98;99734.84;7313204;19;128902;-63
2021/12/05 06:30:10;;;;;;;1.30;0.75;;;;;;;21.44;33.70;99725.50;7309326;19;132195;-62
2021/12/05 06:41:10;;;;;;;1.40;0.63;;;;;;;21.88;33.81;99724.44;7305785;19;131979;-61
2021/12/05 06:48:37;;;;;;;2.92;1.10;;;;;;;21.86;33.31;99731.44;7309754;19;131881;-61
2021/12/05 06:51:04;;;;;;;1.42;0.70;;;;;;;21.77;33.04;99734.91;7310348;19;131940;-62
2021/12/05 06:53:31;;;;;;;2.55;0.90;;;;;;;21.72;32.96;99742.47;7307028;19;131163;-62
2021/12/05 06:55:58;;;;;;;1.95;0.82;;;;;;;21.65;33.16;99740.88;7310193;19;130090;-61
2021/12/05 06:58:24;;;;;;;1.83;0.82;;;;;;;21.57;32.85;99740.69;7300570;19;131677;-61
2021/12/05 07:00:52;;;;;;;1.10;0.70;;;;;;;21.49;32.92;99745.78;7303681;19;131129;-62
2021/12/05 07:03:19;;;;;;;1.55;0.82;;;;;;;21.42;32.67;99750.81;7301471;19;131745;-62
2021/12/05 07:05:59;;;;;;;1.83;0.85;;;;;;;21.36;33.21;99757.56;7309580;19;128895;-62
2021/12/05 07:08:33;;;;;;;2.42;0.85;;;;;;;21.31;32.94;99760.38;7298194;19;129091;-63
2021/12/05 07:11:11;;;;;;;1.70;0.73;;;;;;;21.25;33.30;99775.47;7307468;19;132676;-62
2021/12/05 07:21:57;;;;;;;2.13;1.10;;;;;;;21.09;33.64;99783.13;7304605;19;132056;-62
2021/12/05 07:40:42;;;;;;;2.08;0.90;;;;;;;20.97;34.21;99801.03;7307164;19;128984;-62
2021/12/05 07:43:11;;;;;;;2.92;0.70;;;;;;;20.97;34.36;99794.63;7305532;19;131940;-62
2021/12/05 07:45:44;;;;;;;3.22;0.88;;;;;;;20.98;34.34;99810.19;7308699;19;132010;-62
2021/12/05 07:48:18;;;;;;;0.85;0.60;;;;;;;21.02;33.85;99808.50;7306005;19;129631;-62
2021/12/05 07:50:57;;;;;;;1.98;0.70;;;;;;;21.09;33.92;99808.97;7309124;19;129012;-62
2021/12/05 07:53:30;;;;;;;1.85;0.88;;;;;;;21.17;33.86;99816.69;7302008;19;131381;-62
2021/12/05 07:56:06;;;;;;;1.83;0.80;;;;;;;21.26;33.90;99811.34;7305747;19;131970;-63
2021/12/05 07:58:52;;;;;;;1.42;0.80;;;;;;;21.35;33.67;99820.72;7307045;19;128989;-62
2021/12/05 08:15:14;;;;;;;1.33;0.77;;;;;;;21.67;33.92;99836.03;7306571;19;133513;-62
2021/12/05 08:17:49;;;;;;;1.20;0.65;;;;;;;21.71;33.71;99833.50;7307460;19;131415;-61
2021/12/05 08:20:16;;;;;;;1.30;0.80;;;;;;;21.77;33.85;99829.56;7304290;19;129132;-62
2021/12/05 08:22:44;;;;;;;1.23;0.80;;;;;;;21.80;34.00;99834.50;7308764;19;130258;-61
2021/12/05 08:25:12;;;;;;;1.35;0.70;;;;;;;21.83;33.75;99833.94;7301794;19;132070;-62
2021/12/05 08:27:49;;;;;;;1.17;0.68;;;;;;;21.88;33.38;99841.38;7308559;19;131742;-62
2021/12/05 08:30:25;;;;;;;1.23;0.70;;;;;;;21.91;33.74;99840.00;7304867;19;129518;-62
2021/12/05 08:33:28;;;;;;;0.90;0.60;;;;;;;21.95;33.79;99846.59;7307030;19;130499;-62
2021/12/05 10:03:10;;;;;;;18.52;5.47;;;;;;;20.98;35.42;99971.44;7301233;19;132552;-66
2021/12/05 10:14:00;;;;;;;15.80;4.25;;;;;;;21.07;35.30;99972.50;7301213;19;131264;-64
2021/12/05 10:37:16;;;;;;;9.20;2.70;;;;;;;21.74;34.60;99990.75;7295473;19;131365;-63
2021/12/05 10:39:43;;;;;;;9.60;2.50;;;;;;;21.78;34.74;99989.91;7301824;19;132957;-62
2021/12/05 10:42:37;;;;;;;12.85;2.35;;;;;;;21.84;34.16;99996.25;7306574;19;129036;-64
2021/12/05 10:45:10;;;;;;;9.63;2.20;;;;;;;21.91;34.61;99995.91;7303465;19;129258;-63
2021/12/05 10:47:41;;;;;;;12.13;2.47;;;;;;;21.96;34.14;100001.44;7307416;19;131429;-62
2021/12/05 10:50:40;;;;;;;9.68;2.55;;;;;;;22.02;34.23;99997.50;7304829;19;130850;-61
2021/12/05 10:53:25;;;;;;;14.13;2.42;;;;;;;22.08;34.03;100007.44;7306767;19;129443;-64
2021/12/05 10:55:56;;;;;;;12.75;2.55;;;;;;;22.12;34.68;100002.97;7304941;19;129564;-62
2021/12/05 10:58:28;;;;;;;11.63;2.38;;;;;;;22.16;34.26;100008.78;7301938;19;130553;-61
2021/12/05 11:01:06;;;;;;;14.52;2.22;;;;;;;22.21;34.31;100007.94;7303507;19;132292;-62
2021/12/05 11:03:36;;;;;;;15.88;2.30;;;;;;;22.22;34.43;100010.41;7293328;19;129189;-62
2021/12/05 11:06:27;;;;;;;12.05;2.35;;;;;;;22.25;34.36;100001.47;7298104;19;131922;-63
2021/12/05 11:09:15;;;;;;;10.73;2.63;;;;;;;22.24;34.38;100015.72;7298816;19;132547;-64
2021/12/05 11:11:45;;;;;;;8.90;2.58;;;;;;;22.21;34.27;100016.28;7305422;19;132145;-62
2021/12/05 11:14:17;;;;;;;8.82;2.30;;;;;;;22.18;34.25;100022.41;7304582;19;129510;-64
2021/12/05 11:16:46;;;;;;;14.18;2.40;;;;;;;22.12;33.95;100022.47;7301606;19;129059;-62
2021/12/05 11:19:22;;;;;;;10.32;2.33;;;;;;;22.05;34.18;100024.75;7304680;19;131327;-60
2021/12/05 11:22:16;;;;;;;13.52;2.40;;;;;;;22.00;34.02;100030.38;7300320;19;130689;-62
2021/12/05 11:24:59;;;;;;;13.45;3.25;;;;;;;21.96;34.16;100032.06;7299549;19;129285;-64
2021/12/05 11:27:38;;;;;;;11.55;2.50;;;;;;;21.92;34.00;100036.53;7300138;19;130808;-63
2021/12/05 11:30:17;;;;;;;11.52;2.30;;;;;;;21.86;33.91;100037.72;7298509;19;131141;-63
2021/12/05 11:32:48;;;;;;;13.60;2.38;;;;;;;21.80;33.98;100046.09;7300570;19;130533;-64
2021/12/05 11:35:29;;;;;;;14.07;2.40;;;;;;;21.78;34.04;100051.16;7284542;19;132270;-65
2021/12/05 11:38:04;;;;;;;11.85;2.33;;;;;;;21.77;34.08;100052.28;7299832;19;129324;-63
2021/12/05 11:40:45;;;;;;;14.80;2.65;;;;;;;21.79;33.80;100050.00;7297931;19;130576;-63
2021/12/05 11:43:16;;;;;;;13.23;2.33;;;;;;;21.77;34.33;100043.91;7302644;19;131239;-64
2021/12/05 11:46:12;;;;;;;19.77;2.90;;;;;;;21.78;33.97;100058.66;7303236;19;128834;-64
2021/12/05 11:48:53;;;;;;;15.30;2.33;;;;;;;21.75;33.95;100051.72;7303281;19;129041;-57
2021/12/05 11:51:27;;;;;;;9.35;2.20;;;;;;;21.75;34.10;100060.06;7304905;19;130708;-63
2021/12/05 11:54:01;;;;;;;5.55;1.60;;;;;;;21.77;33.46;100056.97;7300551;19;130759;-63
2021/12/05 11:56:30;;;;;;;7.63;2.03;;;;;;;21.78;33.72;100059.50;7302261;19;129371;-63
2021/12/05 11:59:16;;;;;;;4.70;1.80;;;;;;;21.83;33.36;100067.81;7299068;19;132169;-63
2021/12/05 12:02:12;;;;;;;13.05;2.28;;;;;;;21.88;33.49;100066.09;7297166;19;131856;-63
2021/12/05 12:04:54;;;;;;;11.10;1.70;;;;;;;21.93;33.25;100066.06;7300135;19;131200;-64
2021/12/05 12:07:57;;;;;;;6.75;1.92;;;;;;;21.97;32.90;100062.41;7299485;19;129097;-62
2021/12/05 12:10:28;;;;;;;8.88;1.90;;;;;;;22.00;33.16;100061.00;7306570;19;128875;-64
2021/12/05 12:12:59;;;;;;;3.92;1.45;;;;;;;22.05;32.55;100066.53;7311275;19;131338;-64
2021/12/05 12:15:28;;;;;;;9.60;2.28;;;;;;;22.10;32.38;100068.44;7310434;19;130809;-64
2021/12/05 12:18:07;;;;;;;8.30;1.80;;;;;;;22.16;32.13;100067.28;7311910;19;128956;-62
2021/12/05 12:20:36;;;;;;;3.63;1.30;;;;;;;22.22;32.03;100071.69;7310616;19;130269;-64
2021/12/05 12:23:03;;;;;;;6.97;1.83;;;;;;;22.29;32.34;100074.16;7313236;19;130400;-63
2021/12/05 12:25:35;;;;;;;5.20;1.88;;;;;;;22.32;32.54;100076.34;7308735;19;130605;-64
2021/12/05 12:28:03;;;;;;;4.80;1.67;;;;;;;22.39;32.07;100079.66;7313635;19;129221;-64
2021/12/05 12:30:36;;;;;;;7.03;2.05;;;;;;;22.44;32.21;100081.56;7308061;19;129107;-64
2021/12/05 12:33:08;;;;;;;8.65;2.03;;;;;;;22.48;32.36;100087.38;7311043;19;134520;-66
2021/12/05 12:35:36;;;;;;;5.22;1.75;;;;;;;22.52;32.45;100091.25;7309902;19;130544;-63
2021/12/05 12:38:03;;;;;;;6.18;1.70;;;;;;;22.57;32.26;100091.19;7311316;19;128842;-64
2021/12/05 12:40:39;;;;;;;5.57;2.03;;;;;;;22.62;32.56;100088.34;7311389;19;130209;-64
2021/12/05 12:43:10;;;;;;;8.75;1.90;;;;;;;22.66;32.73;100094.16;7310330;19;130588;-64
2021/12/05 12:45:40;;;;;;;7.13;1.95;;;;;;;22.68;32.90;100087.16;7312275;19;131436;-65
2021/12/05 12:48:12;;;;;;;10.38;2.58;;;;;;;22.71;32.98;100089.38;7308735;19;128975;-65
2021/12/05 12:50:52;;;;;;;5.18;1.98;;;;;;;22.73;32.98;100095.50;7311472;19;129010;-63
2021/12/05 12:53:29;;;;;;;6.05;2.08;;;;;;;22.75;32.67;100092.41;7306791;19;131405;-63
2021/12/05 12:56:07;;;;;;;8.57;2.28;;;;;;;22.77;32.98;100103.28;7311551;19;130497;-64
2021/12/05 12:58:43;;;;;;;7.57;2.08;;;;;;;22.77;33.06;100106.88;7308532;19;130562;-65
2021/12/05 13:12:34;;;;;;;7.13;2.13;;;;;;;22.78;33.13;100118.84;7308187;19;129046;-63
2021/12/05 13:15:09;;;;;;;5.55;1.90;;;;;;;22.78;33.56;100122.47;7307725;19;131358;-62
2021/12/05 13:18:00;;;;;;;5.97;2.22;;;;;;;22.78;33.40;100118.84;7310202;19;131430;-61
2021/12/05 13:20:29;;;;;;;6.53;2.17;;;;;;;22.77;33.37;100128.38;7304549;19;129028;-64
2021/12/05 13:22:58;;;;;;;8.40;2.35;;;;;;;22.71;33.34;100136.78;7309846;19;129130;-64
2021/12/05 13:25:26;;;;;;;5.80;2.08;;;;;;;22.69;33.40;100141.81;7307420;19;130556;-63
2021/12/05 13:27:53;;;;;;;6.13;2.70;;;;;;;22.65;33.49;100149.06;7309329;19;131826;-66
2021/12/05 13:30:47;;;;;;;7.18;2.30;;;;;;;22.62;33.45;100143.25;7306061;19;129488;-66
2021/12/05 13:33:20;;;;;;;8.55;2.35;;;;;;;22.62;33.56;100146.06;7307350;19;129512;-64
2021/12/05 13:35:47;;;;;;;6.38;2.13;;;;;;;22.59;33.31;100145.50;7306413;19;131628;-64
2021/12/05 13:38:50;;;;;;;6.30;2.53;;;;;;;22.54;33.69;100140.00;7312242;19;130646;-65
2021/12/05 13:41:19;;;;;;;7.25;2.33;;;;;;;22.52;33.47;100147.81;7312143;19;129798;-66
2021/12/05 13:44:01;;;;;;;4.53;2.10;;;;;;;22.44;32.48;100149.28;7310598;19;129134;-64
2021/12/05 13:46:38;;;;;;;5.97;2.75;;;;;;;22.34;32.30;100145.75;7313386;19;131865;-63
2021/12/05 13:49:34;;;;;;;9.05;3.20;;;;;;;22.26;32.40;100148.00;7316399;19;130439;-61
2021/12/05 13:52:35;;;;;;;12.27;2.92;;;;;;;22.25;32.18;100156.69;7315556;19;128848;-61
2021/12/05 13:55:42;;;;;;;20.30;2.88;;;;;;;22.24;32.54;100160.59;7314827;19;129878;-64
2021/12/05 13:58:29;;;;;;;14.07;2.90;;;;;;;22.24;32.47;100163.38;7316370;19;130533;-62
2021/12/05 14:01:07;;;;;;;6.87;2.80;;;;;;;22.23;32.58;100162.53;7312347;19;131286;-62
2021/12/05 14:03:55;;;;;;;10.73;2.80;;;;;;;22.25;32.50;100165.84;7315378;19;129052;-62
2021/12/05 14:06:25;;;;;;;10.40;3.13;;;;;;;22.22;32.39;100171.19;7313317;19;129630;-62
2021/12/05 14:09:19;;;;;;;10.25;2.92;;;;;;;22.22;32.71;100176.75;7315002;19;131361;-62
2021/12/05 14:11:47;;;;;;;8.70;2.80;;;;;;;22.22;32.44;100177.56;7314288;19;131536;-62
2021/12/05 14:14:17;;;;;;;9.98;2.80;;;;;;;22.22;32.86;100173.97;7313609;19;129536;-62
2021/12/05 14:16:45;;;;;;;11.10;2.95;;;;;;;22.21;32.42;100186.22;7313117;19;130680;-63
2021/12/05 14:19:16;;;;;;;10.45;3.08;;;;;;;22.18;32.68;100195.13;7312539;19;131229;-64
2021/12/05 14:21:47;;;;;;;10.80;3.38;;;;;;;22.18;32.83;100203.47;7315202;19;130548;-64
2021/12/05 14:24:16;;;;;;;13.65;2.92;;;;;;;22.17;32.98;100202.66;7311068;19;129263;-60
2021/12/05 14:26:46;;;;;;;13.50;3.20;;;;;;;22.19;33.46;100211.56;7314026;19;129300;-61
2021/12/05 14:29:16;;;;;;;14.85;3.00;;;;;;;22.19;33.07;100213.50;7313801;19;131194;-62
2021/12/05 14:31:47;;;;;;;7.88;2.90;;;;;;;22.19;33.40;100213.50;7314734;19;131721;-61
2021/12/05 14:34:14;;;;;;;13.80;3.40;;;;;;;22.21;33.17;100228.03;7308381;19;129090;-61
2021/12/05 14:36:46;;;;;;;10.18;2.65;;;;;;;22.20;33.60;100224.38;7313696;19;129426;-62
2021/12/05 14:39:18;;;;;;;10.13;3.00;;;;;;;22.20;33.42;100226.31;7311592;19;130795;-62
2021/12/05 14:41:47;;;;;;;18.00;3.40;;;;;;;22.20;33.47;100223.53;7310248;19;130503;-61
2021/12/05 14:44:15;;;;;;;9.20;3.05;;;;;;;22.19;33.69;100230.22;7316475;19;128875;-63
2021/12/05 14:47:10;;;;;;;9.10;2.78;;;;;;;22.20;33.28;100237.47;7309423;19;129459;-62
2021/12/05 14:49:43;;;;;;;9.48;2.60;;;;;;;22.17;33.68;100241.66;7309606;19;132224;-63
2021/12/05 14:52:17;;;;;;;14.32;2.83;;;;;;;22.16;33.55;100236.34;7311700;19;131207;-63
2021/12/05 14:54:45;;;;;;;5.40;2.92;;;;;;;22.16;33.78;100247.50;7311788;19;130046;-62
2021/12/05 14:57:16;;;;;;;11.77;2.85;;;;;;;22.16;33.73;100253.06;7311003;19;128744;-63
2021/12/05 14:59:46;;;;;;;9.95;2.75;;;;;;;22.13;33.67;100252.56;7304630;19;131711;-62
2021/12/05 15:02:15;;;;;;;13.25;3.72;;;;;;;22.11;33.70;100259.50;7312045;19;130892;-62
2021/12/05 15:04:46;;;;;;;9.55;3.17;;;;;;;22.09;33.72;100264.56;7311838;19;129202;-63
2021/12/05 15:07:13;;;;;;;6.28;2.50;;;;;;;22.05;33.90;100272.63;7314326;19;129273;-63
2021/12/05 15:09:44;;;;;;;14.27;3.45;;;;;;;22.02;33.71;100267.66;7310355;19;130727;-63
2021/12/05 15:12:20;;;;;;;11.38;2.35;;;;;;;21.98;33.78;100272.13;7314716;19;130593;-62
2021/12/05 15:14:50;;;;;;;9.73;3.13;;;;;;;21.94;33.76;100273.78;7310420;19;129268;-64
2021/12/05 15:17:20;;;;;;;7.38;2.47;;;;;;;21.89;33.96;100280.22;7313685;19;128856;-63
2021/12/05 15:19:50;;;;;;;10.25;2.85;;;;;;;21.86;33.71;100283.56;7303105;19;132922;-62
2021/12/05 15:22:37;;;;;;;9.23;2.63;;;;;;;21.83;33.71;100286.94;7310659;19;132828;-62
2021/12/05 15:25:07;;;;;;;5.78;2.83;;;;;;;21.79;33.88;100305.31;7312107;19;129058;-61
2021/12/05 15:27:35;;;;;;;8.63;2.63;;;;;;;21.75;33.96;100305.06;7307458;19;129278;-63
2021/12/05 15:30:16;;;;;;;9.00;2.50;;;;;;;21.72;34.15;100307.59;7311570;19;131943;-61
2021/12/05 15:32:45;;;;;;;10.32;2.55;;;;;;;21.65;33.99;100308.69;7307841;19;130805;-62
2021/12/05 15:35:15;;;;;;;5.60;2.38;;;;;;;21.62;33.88;100314.00;7311212;19;129698;-62
2021/12/05 15:37:51;;;;;;;8.25;2.38;;;;;;;21.59;33.94;100317.34;7311554;19;129781;-64
2021/12/05 15:40:18;;;;;;;7.78;3.03;;;;;;;21.52;34.00;100324.06;7310477;19;131389;-62
2021/12/05 15:42:45;;;;;;;5.85;2.38;;;;;;;21.48;34.25;100334.03;7310388;19;131871;-61
2021/12/05 15:45:16;;;;;;;9.68;2.90;;;;;;;21.45;34.25;100339.34;7306344;19;128934;-63
2021/12/05 15:47:46;;;;;;;15.48;2.88;;;;;;;21.41;34.05;100336.28;7318602;19;128838;-63
2021/12/05 15:50:22;;;;;;;4.18;2.17;;;;;;;21.37;33.70;100335.97;7313261;19;131091;-62
2021/12/05 15:53:03;;;;;;;6.60;2.10;;;;;;;21.36;33.92;100345.44;7319230;19;130521;-62
2021/12/05 15:55:35;;;;;;;7.35;2.63;;;;;;;21.40;34.04;100354.09;7312006;19;129049;-63
2021/12/05 15:58:11;;;;;;;8.23;2.53;;;;;;;21.43;33.69;100356.28;7320907;19;128846;-62
2021/12/05 16:00:48;;;;;;;4.45;2.30;;;;;;;21.47;33.92;100360.19;7318492;19;130913;-60
2021/12/05 16:03:18;;;;;;;7.45;2.33;;;;;;;21.52;33.53;100368.56;7315255;19;131725;-62
2021/12/05 16:05:53;;;;;;;7.40;2.42;;;;;;;21.60;33.81;100374.69;7316236;19;129677;-66
2021/12/05 16:08:20;;;;;;;4.15;2.00;;;;;;;21.67;33.50;100383.56;7317517;19;129171;-62
2021/12/05 16:10:50;;;;;;;3.22;2.00;;;;;;;21.73;33.17;100385.25;7320137;19;131007;-63
2021/12/05 16:13:21;;;;;;;3.85;2.10;;;;;;;21.77;33.07;100386.38;7315293;19;131752;-62
2021/12/05 16:15:51;;;;;;;5.65;2.65;;;;;;;21.81;32.74;100392.19;7318153;19;129080;-63
2021/12/05 16:18:29;;;;;;;5.50;2.40;;;;;;;21.82;32.58;100391.91;7315913;19;129967;-63
2021/12/05 16:21:02;;;;;;;5.25;2.10;;;;;;;21.82;32.64;100405.81;7318154;19;131137;-63
2021/12/05 16:23:30;;;;;;;7.40;2.33;;;;;;;21.80;32.59;100413.63;7315008;19;132172;-63
2021/12/05 16:26:11;;;;;;;5.30;2.20;;;;;;;21.78;32.56;100421.44;7317374;19;128963;-63
2021/12/05 16:28:47;;;;;;;5.28;1.92;;;;;;;21.76;32.61;100425.59;7319876;19;129948;-63
2021/12/05 16:31:19;;;;;;;3.60;1.90;;;;;;;21.71;32.80;100420.88;7314689;19;131376;-62
2021/12/05 16:34:01;;;;;;;6.35;2.00;;;;;;;21.69;32.60;100434.25;7315758;19;131375;-63
2021/12/05 16:36:32;;;;;;;5.55;2.47;;;;;;;21.64;32.75;100428.69;7314192;19;130463;-62
2021/12/05 16:39:10;;;;;;;4.53;2.05;;;;;;;21.60;32.54;100435.91;7317569;19;130089;-62
2021/12/05 16:41:43;;;;;;;4.03;1.90;;;;;;;21.56;32.73;100440.34;7318490;19;130691;-62
2021/12/05 16:44:13;;;;;;;4.03;1.83;;;;;;;21.52;32.49;100437.31;7317336;19;130551;-63
2021/12/05 16:46:43;;;;;;;7.47;2.40;;;;;;;21.47;32.82;100440.91;7318097;19;129779;-62
2021/12/05 16:49:13;;;;;;;5.50;2.10;;;;;;;21.43;32.86;100445.34;7312696;19;129716;-62
2021/12/05 16:51:49;;;;;;;4.60;2.30;;;;;;;21.40;32.65;100448.69;7317535;19;130704;-63
2021/12/05 16:54:42;;;;;;;5.00;2.38;;;;;;;21.37;32.90;100460.38;7311812;19;130478;-62
2021/12/05 16:57:11;;;;;;;6.68;2.33;;;;;;;21.37;33.31;100449.25;7312935;19;129058;-62
2021/12/05 16:59:44;;;;;;;7.20;2.30;;;;;;;21.37;33.34;100450.06;7316268;19;130844;-63
2021/12/05 17:02:16;;;;;;;3.63;2.03;;;;;;;21.39;33.09;100463.72;7315195;19;131086;-64
2021/12/05 17:05:04;;;;;;;9.57;2.90;;;;;;;21.41;33.06;100455.94;7312131;19;130321;-62
2021/12/05 17:07:48;;;;;;;;;;;;;;;21.43;33.12;100464.00;7315690;19;128951;-62
2021/12/05 17:10:20;;;;;;;7.97;2.30;;;;;;;21.50;33.51;100459.00;7317653;19;128757;-65
2021/12/05 17:12:50;;;;;;;10.25;2.58;;;;;;;21.52;32.98;100465.13;7307143;19;130567;-64
2021/12/05 17:15:28;;;;;;;6.32;2.33;;;;;;;21.55;33.54;100461.81;7312899;19;131523;-64
2021/12/05 17:18:02;;;;;;;4.07;2.30;;;;;;;21.59;33.19;100467.66;7314356;19;129171;-63